createdAt,value
2022-12-25T00:00:29.834Z,99006.59
2022-12-25T00:02:58.350Z,99000.88
2022-12-25T00:05:26.800Z,98994.78
2022-12-25T00:07:55.029Z,98990.66
2022-12-25T00:10:23.213Z,98984.00
2022-12-25T00:12:51.911Z,98999.13
2022-12-25T00:15:21.402Z,99007.13
2022-12-25T00:17:49.579Z,99007.28
2022-12-25T00:20:17.827Z,98998.56
2022-12-25T00:22:45.999Z,99003.81
2022-12-25T00:25:14.139Z,99004.75
2022-12-25T00:27:42.380Z,98998.91
2022-12-25T00:30:11.192Z,98984.22
2022-12-25T00:32:42.229Z,98991.50
2022-12-25T00:35:10.818Z,98983.50
2022-12-25T00:37:38.923Z,98971.44
2022-12-25T00:40:08.077Z,98977.47
2022-12-25T00:42:36.214Z,98979.97
2022-12-25T00:45:05.884Z,98978.13
2022-12-25T00:47:33.955Z,98973.94
2022-12-25T00:50:03.410Z,98973.25
2022-12-25T00:52:31.685Z,98961.28
2022-12-25T00:54:59.877Z,98967.56
2022-12-25T00:57:28.128Z,98972.03
2022-12-25T00:59:56.289Z,98969.59
2022-12-25T01:02:24.749Z,98958.34
2022-12-25T01:04:55.458Z,98953.22
2022-12-25T01:07:27.654Z,98969.09
2022-12-25T01:10:13.149Z,98968.03
2022-12-25T01:12:43.591Z,98972.66
2022-12-25T01:15:13.825Z,98980.06
2022-12-25T01:17:42.897Z,98968.03
2022-12-25T01:20:11.687Z,98971.81
2022-12-25T01:22:41.220Z,98978.16
2022-12-25T01:25:10.659Z,98989.63
2022-12-25T01:27:38.903Z,98987.91
2022-12-25T01:30:08.121Z,98986.06
2022-12-25T01:32:36.310Z,98984.19
2022-12-25T01:35:04.529Z,98989.22
2022-12-25T01:37:32.616Z,98976.13
2022-12-25T01:40:02.154Z,98990.94
2022-12-25T01:42:30.344Z,98990.22
2022-12-25T01:45:34.094Z,98992.13
2022-12-25T01:48:06.395Z,98992.13
2022-12-25T01:50:37.025Z,98987.78
2022-12-25T01:53:06.372Z,98992.13
2022-12-25T01:55:37.348Z,98998.13
2022-12-25T01:58:05.683Z,98998.25
2022-12-25T02:00:34.071Z,98996.53
2022-12-25T02:03:02.459Z,98981.75
2022-12-25T02:05:33.165Z,98982.00
2022-12-25T02:08:05.377Z,98987.13
2022-12-25T02:10:34.902Z,98989.34
2022-12-25T02:13:04.037Z,98981.84
2022-12-25T02:15:41.487Z,98985.00
2022-12-25T02:18:15.053Z,98987.94
2022-12-25T02:20:56.397Z,98978.63
2022-12-25T02:23:48.877Z,98976.66
2022-12-25T02:26:27.506Z,98980.88
2022-12-25T02:29:03.983Z,98982.44
2022-12-25T02:31:41.166Z,98973.84
2022-12-25T02:34:16.796Z,98976.66
2022-12-25T02:36:50.863Z,98978.78
2022-12-25T02:39:41.659Z,98978.22
2022-12-25T02:42:15.266Z,98974.84
2022-12-25T02:45:04.271Z,98977.59
2022-12-25T02:47:52.044Z,98980.53
2022-12-25T02:50:39.560Z,98979.81
2022-12-25T02:53:27.144Z,98976.53
2022-12-25T02:56:15.269Z,98975.75
2022-12-25T02:59:03.988Z,98975.63
2022-12-25T03:01:53.317Z,98978.25
2022-12-25T03:04:43.223Z,98984.28
2022-12-25T03:07:14.391Z,98986.91
2022-12-25T03:10:05.027Z,98982.88
2022-12-25T03:12:41.924Z,98988.44
2022-12-25T03:15:31.390Z,98981.44
2022-12-25T03:18:04.638Z,98975.34
2022-12-25T03:20:50.738Z,98973.66
2022-12-25T03:23:40.264Z,98983.72
2022-12-25T03:26:26.491Z,98979.34
2022-12-25T03:28:54.866Z,98969.47
2022-12-25T03:31:28.031Z,98960.72
2022-12-25T03:37:09.254Z,98964.50
2022-12-25T03:40:04.157Z,98947.06
2022-12-25T03:43:00.348Z,98935.66
2022-12-25T03:45:53.424Z,98944.28
2022-12-25T03:48:39.471Z,98940.34
2022-12-25T03:51:31.027Z,98936.88
2022-12-25T03:54:24.326Z,98934.28
2022-12-25T03:57:10.518Z,98925.34
2022-12-25T03:59:56.302Z,98928.88
2022-12-25T04:02:41.986Z,98933.13
2022-12-25T04:05:27.870Z,98932.78
2022-12-25T04:08:13.282Z,98923.88
2022-12-25T04:11:00.513Z,98911.38
2022-12-25T04:13:46.237Z,98926.09
2022-12-25T04:16:31.823Z,98913.22
2022-12-25T04:19:17.367Z,98914.34
2022-12-25T04:22:02.962Z,98924.81
2022-12-25T04:24:48.469Z,98926.44
2022-12-25T04:27:31.903Z,98915.91
2022-12-25T04:30:17.784Z,98917.63
2022-12-25T04:33:03.472Z,98915.03
2022-12-25T04:35:48.964Z,98900.19
2022-12-25T04:38:20.983Z,98894.06
2022-12-25T04:40:49.281Z,98894.03
2022-12-25T04:43:18.727Z,98897.56
2022-12-25T04:45:53.737Z,98893.22
2022-12-25T04:48:22.357Z,98879.38
2022-12-25T04:50:50.506Z,98895.84
2022-12-25T04:53:19.339Z,98888.00
2022-12-25T04:55:47.470Z,98896.66
2022-12-25T04:58:15.851Z,98903.59
2022-12-25T05:00:45.257Z,98891.34
2022-12-25T05:03:13.600Z,98892.91
2022-12-25T05:05:41.889Z,98889.16
2022-12-25T05:08:10.275Z,98890.09
2022-12-25T05:10:40.912Z,98883.94
2022-12-25T05:13:09.186Z,98885.66
2022-12-25T05:15:40.884Z,98890.91
2022-12-25T05:18:10.543Z,98887.34
2022-12-25T05:20:40.431Z,98872.41
2022-12-25T05:23:10.324Z,98887.34
2022-12-25T05:25:40.492Z,98875.31
2022-12-25T05:28:09.222Z,98873.59
2022-12-25T05:30:37.419Z,98877.00
2022-12-25T05:33:06.068Z,98875.03
2022-12-25T05:35:37.694Z,98884.19
2022-12-25T05:38:06.326Z,98878.13
2022-12-25T05:40:34.771Z,98874.59
2022-12-25T05:43:02.972Z,98879.84
2022-12-25T05:45:32.323Z,98871.06
2022-12-25T05:48:00.557Z,98858.75
2022-12-25T05:50:28.804Z,98856.25
2022-12-25T05:53:08.471Z,98857.06
2022-12-25T05:55:37.512Z,98860.59
2022-12-25T05:58:05.946Z,98856.19
2022-12-25T06:00:34.532Z,98847.13
2022-12-25T06:03:03.007Z,98860.84
2022-12-25T06:05:31.568Z,98850.06
2022-12-25T06:07:59.741Z,98850.91
2022-12-25T06:10:29.203Z,98851.94
2022-12-25T06:12:57.360Z,98850.22
2022-12-25T06:15:25.541Z,98851.78
2022-12-25T06:17:53.629Z,98849.22
2022-12-25T06:20:21.783Z,98858.09
2022-12-25T06:22:49.953Z,98862.63
2022-12-25T06:25:18.442Z,98859.88
2022-12-25T06:27:47.873Z,98865.13
2022-12-25T06:30:16.603Z,98860.56
2022-12-25T06:32:44.714Z,98858.75
2022-12-25T06:35:12.944Z,98853.53
2022-12-25T06:37:41.098Z,98862.81
2022-12-25T06:40:10.056Z,98858.38
2022-12-25T06:42:38.300Z,98861.75
2022-12-25T06:45:08.480Z,98862.03
2022-12-25T06:47:37.918Z,98863.97
2022-12-25T06:50:07.356Z,98858.09
2022-12-25T06:52:35.797Z,98857.34
2022-12-25T06:55:03.980Z,98857.09
2022-12-25T06:57:32.482Z,98845.25
2022-12-25T07:00:00.700Z,98833.09
2022-12-25T07:02:30.564Z,98832.06
2022-12-25T07:04:59.201Z,98835.41
2022-12-25T07:07:27.329Z,98831.91
2022-12-25T07:09:55.585Z,98840.41
2022-12-25T07:12:24.800Z,98833.47
2022-12-25T07:14:56.086Z,98835.81
2022-12-25T07:17:25.058Z,98837.41
2022-12-25T07:19:56.004Z,98837.56
2022-12-25T07:22:24.176Z,98843.88
2022-12-25T07:24:52.359Z,98839.28
2022-12-25T07:27:20.578Z,98850.19
2022-12-25T07:29:48.678Z,98867.31
2022-12-25T07:32:16.957Z,98854.19
2022-12-25T07:34:45.115Z,98859.38
2022-12-25T07:37:14.844Z,98856.81
2022-12-25T07:39:42.964Z,98865.28
2022-12-25T07:42:11.149Z,98867.69
2022-12-25T07:44:39.310Z,98857.97
2022-12-25T07:47:07.541Z,98863.94
2022-12-25T07:49:37.039Z,98855.03
2022-12-25T07:52:05.528Z,98851.66
2022-12-25T07:54:34.931Z,98858.75
2022-12-25T07:57:03.278Z,98866.63
2022-12-25T07:59:31.359Z,98874.50
2022-12-25T08:01:59.711Z,98864.00
2022-12-25T08:04:28.059Z,98863.84
2022-12-25T08:06:56.343Z,98858.47
2022-12-25T08:09:24.590Z,98859.44
2022-12-25T08:11:54.062Z,98854.06
2022-12-25T08:14:22.269Z,98854.91
2022-12-25T08:16:50.668Z,98852.19
2022-12-25T08:19:18.970Z,98855.38
2022-12-25T08:21:47.178Z,98842.94
2022-12-25T08:24:15.272Z,98851.69
2022-12-25T08:26:43.518Z,98855.06
2022-12-25T08:29:12.999Z,98854.13
2022-12-25T08:31:46.417Z,98853.19
2022-12-25T08:34:14.887Z,98855.81
2022-12-25T08:36:43.187Z,98864.63
2022-12-25T08:39:11.561Z,98871.75
2022-12-25T08:41:40.397Z,98861.28
2022-12-25T08:44:08.841Z,98869.16
2022-12-25T08:46:39.858Z,98878.81
2022-12-25T08:49:08.109Z,98875.44
2022-12-25T08:51:37.328Z,98875.31
2022-12-25T08:54:05.762Z,98868.50
2022-12-25T08:56:34.029Z,98882.75
2022-12-25T08:59:02.277Z,98890.84
2022-12-25T09:01:30.646Z,98886.41
2022-12-25T09:04:00.227Z,98887.25
2022-12-25T09:06:28.840Z,98885.47
2022-12-25T09:08:57.083Z,98890.09
2022-12-25T09:11:25.379Z,98892.72
2022-12-25T09:13:53.610Z,98872.66
2022-12-25T09:16:23.452Z,98877.13
2022-12-25T09:18:51.962Z,98885.06
2022-12-25T09:21:21.440Z,98887.00
2022-12-25T09:23:49.900Z,98901.13
2022-12-25T09:26:19.737Z,98907.50
2022-12-25T09:28:51.971Z,98907.63
2022-12-25T09:31:21.255Z,98905.09
2022-12-25T09:33:49.707Z,98908.44
2022-12-25T09:36:18.049Z,98905.72
2022-12-25T09:38:47.520Z,98895.25
2022-12-25T09:41:21.276Z,98899.63
2022-12-25T09:43:51.409Z,98901.03
2022-12-25T09:46:23.108Z,98902.56
2022-12-25T09:49:00.485Z,98917.25
2022-12-25T09:51:30.748Z,98910.94
2022-12-25T09:54:06.199Z,98919.41
2022-12-25T09:56:35.070Z,98922.97
2022-12-25T09:59:03.579Z,98922.84
2022-12-25T10:01:39.023Z,98921.09
2022-12-25T10:04:21.740Z,98928.09
2022-12-25T10:07:00.679Z,98925.47
2022-12-25T10:09:47.101Z,98928.22
2022-12-25T10:12:31.141Z,98924.38
2022-12-25T10:15:05.229Z,98925.84
2022-12-25T10:17:43.089Z,98920.38
2022-12-25T10:20:19.631Z,98922.84
2022-12-25T10:22:52.560Z,98927.16
2022-12-25T10:25:26.086Z,98928.88
2022-12-25T10:27:58.265Z,98923.63
2022-12-25T10:30:28.567Z,98924.53
2022-12-25T10:32:58.762Z,98917.75
2022-12-25T10:35:30.813Z,98923.94
2022-12-25T10:38:01.766Z,98926.41
2022-12-25T10:40:48.086Z,98921.91
2022-12-25T10:43:22.577Z,98917.59
2022-12-25T10:45:51.575Z,98924.69
2022-12-25T10:48:23.989Z,98921.31
2022-12-25T10:50:52.636Z,98913.56
2022-12-25T10:53:23.540Z,98911.88
2022-12-25T10:56:17.352Z,98913.75
2022-12-25T10:58:45.942Z,98911.88
2022-12-25T11:01:14.947Z,98908.50
2022-12-25T11:03:46.900Z,98911.88
2022-12-25T11:06:24.453Z,98919.00
2022-12-25T11:08:56.083Z,98911.25
2022-12-25T11:11:27.051Z,98903.25
2022-12-25T11:13:58.313Z,98901.22
2022-12-25T11:16:29.281Z,98900.78
2022-12-25T11:18:58.889Z,98896.91
2022-12-25T11:21:28.782Z,98894.06
2022-12-25T11:23:58.962Z,98889.41
2022-12-25T11:26:30.146Z,98884.78
2022-12-25T11:28:59.151Z,98892.25
2022-12-25T11:31:40.392Z,98883.13
2022-12-25T11:34:15.753Z,98883.66
2022-12-25T11:36:46.606Z,98879.94
2022-12-25T11:39:24.935Z,98878.94
2022-12-25T11:41:59.096Z,98868.28
2022-12-25T11:44:36.400Z,98870.81
2022-12-25T11:47:13.379Z,98879.53
2022-12-25T11:49:50.332Z,98871.66
2022-12-25T11:52:21.656Z,98876.91
2022-12-25T11:54:57.458Z,98875.03
2022-12-25T11:57:30.030Z,98873.22
2022-12-25T12:00:06.776Z,98865.91
2022-12-25T12:02:43.765Z,98870.69
2022-12-25T12:05:19.234Z,98871.88
2022-12-25T12:07:58.428Z,98867.13
2022-12-25T12:10:38.782Z,98862.56
2022-12-25T12:13:24.761Z,98864.44
2022-12-25T12:15:53.087Z,98859.25
2022-12-25T12:18:24.446Z,98851.31
2022-12-25T12:21:20.698Z,98849.34
2022-12-25T12:23:54.412Z,98849.00
2022-12-25T12:26:23.827Z,98846.13
2022-12-25T12:28:56.352Z,98843.50
2022-12-25T12:31:26.301Z,98847.06
2022-12-25T12:33:57.602Z,98843.66
2022-12-25T12:36:36.104Z,98839.50
2022-12-25T12:39:06.332Z,98836.09
2022-12-25T12:41:47.052Z,98839.66
2022-12-25T12:44:18.502Z,98846.81
2022-12-25T12:46:55.228Z,98844.16
2022-12-25T12:49:25.696Z,98832.81
2022-12-25T12:52:05.626Z,98837.97
2022-12-25T12:54:34.268Z,98833.56
2022-12-25T12:57:04.217Z,98829.16
2022-12-25T12:59:40.582Z,98825.00
2022-12-25T13:02:32.753Z,98824.41
2022-12-25T13:05:04.953Z,98809.72
2022-12-25T13:07:45.044Z,98811.94
2022-12-25T13:10:24.441Z,98804.38
2022-12-25T13:12:56.067Z,98795.91
2022-12-25T13:15:29.122Z,98794.19
2022-12-25T13:18:01.248Z,98801.31
2022-12-25T13:20:40.153Z,98803.19
2022-12-25T13:23:15.640Z,98800.63
2022-12-25T13:25:43.900Z,98797.16
2022-12-25T13:28:15.934Z,98803.34
2022-12-25T13:30:47.213Z,98805.22
2022-12-25T13:33:19.788Z,98802.69
2022-12-25T13:35:48.729Z,98805.53
2022-12-25T13:38:18.783Z,98798.75
2022-12-25T13:41:06.679Z,98807.75
2022-12-25T13:43:34.931Z,98796.63
2022-12-25T13:46:04.541Z,98801.19
2022-12-25T13:48:33.236Z,98799.81
2022-12-25T13:51:03.560Z,98798.34
2022-12-25T13:53:31.819Z,98806.41
2022-12-25T13:56:00.488Z,98799.59
2022-12-25T13:58:30.882Z,98803.16
2022-12-25T14:01:01.044Z,98802.47
2022-12-25T14:03:36.935Z,98784.50
2022-12-25T14:06:17.772Z,98806.66
2022-12-25T14:08:47.245Z,98804.28
2022-12-25T14:11:17.820Z,98798.41
2022-12-25T14:13:49.623Z,98798.72
2022-12-25T14:16:19.435Z,98803.38
2022-12-25T14:18:57.468Z,98800.13
2022-12-25T14:21:32.538Z,98799.41
2022-12-25T14:24:01.346Z,98790.84
2022-12-25T14:26:31.989Z,98798.88
2022-12-25T14:29:15.585Z,98803.34
2022-12-25T14:31:46.878Z,98803.34
2022-12-25T14:34:19.677Z,98801.50
2022-12-25T14:36:48.626Z,98802.50
2022-12-25T14:39:31.471Z,98794.94
2022-12-25T14:42:00.253Z,98789.22
2022-12-25T14:44:34.573Z,98793.94
2022-12-25T14:47:14.071Z,98806.41
2022-12-25T14:49:44.198Z,98786.34
2022-12-25T14:52:19.142Z,98791.72
2022-12-25T14:54:50.506Z,98791.97
2022-12-25T14:57:25.512Z,98794.81
2022-12-25T15:00:05.330Z,98796.72
2022-12-25T15:02:41.714Z,98794.19
2022-12-25T15:05:28.068Z,98795.28
2022-12-25T15:08:21.610Z,98801.66
2022-12-25T15:11:00.605Z,98809.72
2022-12-25T15:13:31.063Z,98810.84
2022-12-25T15:16:03.057Z,98804.00
2022-12-25T15:18:35.667Z,98803.34
2022-12-25T15:21:05.305Z,98796.59
2022-12-25T15:23:33.577Z,98793.28
2022-12-25T15:26:01.795Z,98792.66
2022-12-25T15:28:29.949Z,98793.69
2022-12-25T15:30:58.276Z,98804.97
2022-12-25T15:33:26.493Z,98811.13
2022-12-25T15:35:54.797Z,98820.91
2022-12-25T15:38:24.666Z,98829.03
2022-12-25T15:40:53.033Z,98825.75
2022-12-25T15:43:39.980Z,98825.84
2022-12-25T15:46:10.957Z,98821.53
2022-12-25T15:48:39.246Z,98812.91
2022-12-25T15:51:07.471Z,98815.63
2022-12-25T15:53:37.004Z,98810.56
2022-12-25T15:56:05.307Z,98820.09
2022-12-25T15:58:33.399Z,98812.38
2022-12-25T16:01:01.706Z,98802.03
2022-12-25T16:03:30.222Z,98808.13
2022-12-25T16:05:58.379Z,98814.22
2022-12-25T16:08:26.507Z,98808.13
2022-12-25T16:10:56.970Z,98802.81
2022-12-25T16:13:25.138Z,98801.78
2022-12-25T16:15:53.528Z,98803.47
2022-12-25T16:18:23.877Z,98802.47
2022-12-25T16:20:52.516Z,98795.63
2022-12-25T16:23:20.747Z,98802.81
2022-12-25T16:25:49.359Z,98799.44
2022-12-25T16:28:18.907Z,98805.59
2022-12-25T16:30:47.060Z,98801.13
2022-12-25T16:33:15.386Z,98808.84
2022-12-25T16:35:44.170Z,98796.53
2022-12-25T16:38:12.613Z,98796.53
2022-12-25T16:40:41.060Z,98793.06
2022-12-25T16:43:09.314Z,98801.13
2022-12-25T16:45:41.057Z,98797.84
2022-12-25T16:48:09.428Z,98805.59
2022-12-25T16:50:40.263Z,98806.34
2022-12-25T16:53:08.840Z,98800.34
2022-12-25T16:55:38.785Z,98808.13
2022-12-25T16:58:07.939Z,98820.03
2022-12-25T17:00:36.200Z,98812.09
2022-12-25T17:03:05.905Z,98817.31
2022-12-25T17:05:34.667Z,98813.81
2022-12-25T17:08:02.840Z,98811.81
2022-12-25T17:10:30.957Z,98810.13
2022-12-25T17:12:59.184Z,98816.22
2022-12-25T17:15:27.309Z,98827.69
2022-12-25T17:17:55.456Z,98827.81
2022-12-25T17:20:24.872Z,98823.56
2022-12-25T17:22:53.062Z,98827.88
2022-12-25T17:25:21.243Z,98825.06
2022-12-25T17:27:50.612Z,98823.13
2022-12-25T17:30:18.848Z,98833.56
2022-12-25T17:32:47.171Z,98832.75
2022-12-25T17:35:15.937Z,98835.53
2022-12-25T17:37:45.426Z,98836.47
2022-12-25T17:40:14.290Z,98835.63
2022-12-25T17:42:42.579Z,98832.28
2022-12-25T17:45:11.410Z,98839.44
2022-12-25T17:47:39.689Z,98840.13
2022-12-25T17:50:08.755Z,98842.47
2022-12-25T17:52:37.037Z,98843.25
2022-12-25T17:55:07.147Z,98839.59
2022-12-25T17:57:35.442Z,98846.50
2022-12-25T18:00:03.715Z,98849.13
2022-12-25T18:02:33.192Z,98846.50
2022-12-25T18:05:01.418Z,98849.91
2022-12-25T18:07:29.589Z,98851.59
2022-12-25T18:09:57.662Z,98855.00
2022-12-25T18:12:27.689Z,98853.16
2022-12-25T18:14:55.844Z,98843.53
2022-12-25T18:17:24.010Z,98855.00
2022-12-25T18:19:52.252Z,98840.28
2022-12-25T18:22:20.661Z,98848.28
2022-12-25T18:24:49.039Z,98849.13
2022-12-25T18:27:17.282Z,98848.34
2022-12-25T18:29:46.910Z,98843.25
2022-12-25T18:32:15.385Z,98837.31
2022-12-25T18:34:43.596Z,98827.88
2022-12-25T18:37:12.639Z,98841.31
2022-12-25T18:39:40.756Z,98833.66
2022-12-25T18:42:26.508Z,98829.50
2022-12-25T18:44:55.969Z,98836.78
2022-12-25T18:47:24.160Z,98841.06
2022-12-25T18:49:53.013Z,98837.53
2022-12-25T18:52:48.080Z,98840.00
2022-12-25T18:55:10.802Z,98837.53
2022-12-25T18:57:40.834Z,98841.94
2022-12-25T19:00:11.335Z,98833.03
2022-12-25T19:02:39.717Z,98845.13
2022-12-25T19:05:09.068Z,98840.75
2022-12-25T19:07:37.804Z,98852.72
2022-12-25T19:10:06.689Z,98844.00
2022-12-25T19:12:34.964Z,98843.78
2022-12-25T19:15:03.260Z,98847.97
2022-12-25T19:17:34.320Z,98844.50
2022-12-25T19:20:03.456Z,98837.44
2022-12-25T19:22:31.606Z,98835.47
2022-12-25T19:24:59.909Z,98834.41
2022-12-25T19:27:28.048Z,98826.47
2022-12-25T19:29:56.369Z,98823.88
2022-12-25T19:32:24.542Z,98822.94
2022-12-25T19:34:54.134Z,98810.84
2022-12-25T19:37:22.299Z,98820.41
2022-12-25T19:39:50.531Z,98828.25
2022-12-25T19:42:18.951Z,98827.53
2022-12-25T19:44:47.219Z,98826.00
2022-12-25T19:47:15.478Z,98812.09
2022-12-25T19:49:44.246Z,98819.25
2022-12-25T19:52:15.366Z,98822.00
2022-12-25T19:54:43.580Z,98821.94
2022-12-25T19:57:11.692Z,98807.00
2022-12-25T19:59:40.652Z,98808.97
2022-12-25T20:02:10.765Z,98813.38
2022-12-25T20:04:39.079Z,98808.97
2022-12-25T20:07:07.291Z,98814.47
2022-12-25T20:09:36.842Z,98802.47
2022-12-25T20:12:05.836Z,98809.66
2022-12-25T20:14:33.946Z,98817.63
2022-12-25T20:17:02.168Z,98820.00
2022-12-25T20:19:30.463Z,98809.31
2022-12-25T20:21:58.766Z,98810.38
2022-12-25T20:24:27.096Z,98813.06
2022-12-25T20:26:59.120Z,98810.16
2022-12-25T20:29:27.787Z,98807.13
2022-12-25T20:31:56.010Z,98819.91
2022-12-25T20:34:24.346Z,98818.19
2022-12-25T20:36:52.608Z,98815.38
2022-12-25T20:39:20.872Z,98810.19
2022-12-25T20:41:48.995Z,98816.28
2022-12-25T20:44:19.680Z,98818.13
2022-12-25T20:46:47.908Z,98813.94
2022-12-25T20:49:16.206Z,98811.19
2022-12-25T20:51:44.444Z,98817.47
2022-12-25T20:54:14.966Z,98813.53
2022-12-25T20:56:44.379Z,98815.47
2022-12-25T20:59:13.058Z,98819.72
2022-12-25T21:01:43.848Z,98819.31
2022-12-25T21:04:16.185Z,98820.75
2022-12-25T21:06:44.852Z,98824.06
2022-12-25T21:09:12.997Z,98821.53
2022-12-25T21:11:41.567Z,98827.81
2022-12-25T21:14:10.818Z,98820.03
2022-12-25T21:16:39.087Z,98823.28
2022-12-25T21:19:08.590Z,98812.81
2022-12-25T21:21:39.246Z,98818.25
2022-12-25T21:24:07.666Z,98813.94
2022-12-25T21:26:36.768Z,98813.09
2022-12-25T21:29:05.374Z,98808.69
2022-12-25T21:31:55.278Z,98804.19
2022-12-25T21:34:24.776Z,98799.22
2022-12-25T21:36:52.938Z,98809.50
2022-12-25T21:39:21.277Z,98803.13
2022-12-25T21:41:49.388Z,98787.41
2022-12-25T21:44:17.563Z,98805.81
2022-12-25T21:46:45.769Z,98803.28
2022-12-25T21:49:33.956Z,98804.34
2022-12-25T21:52:08.072Z,98793.97
2022-12-25T21:54:36.742Z,98797.53
2022-12-25T21:57:04.926Z,98790.59
2022-12-25T21:59:33.140Z,98792.44
2022-12-25T22:02:01.541Z,98789.16
2022-12-25T22:04:30.036Z,98789.44
2022-12-25T22:07:15.849Z,98791.31
2022-12-25T22:09:46.779Z,98794.13
2022-12-25T22:12:34.475Z,98779.53
2022-12-25T22:15:06.767Z,98788.47
2022-12-25T22:17:54.811Z,98793.69
2022-12-25T22:20:25.390Z,98793.97
2022-12-25T22:22:53.796Z,98786.13
2022-12-25T22:25:24.723Z,98787.09
2022-12-25T22:27:53.316Z,98788.72
2022-12-25T22:30:23.657Z,98789.69
2022-12-25T22:32:52.969Z,98802.75
2022-12-25T22:35:22.109Z,98794.75
2022-12-25T22:37:50.942Z,98793.03
2022-12-25T22:40:20.733Z,98791.94
2022-12-25T22:42:50.847Z,98790.16
2022-12-25T22:45:19.090Z,98786.34
2022-12-25T22:47:47.472Z,98794.97
2022-12-25T22:50:16.031Z,98793.16
2022-12-25T22:52:45.846Z,98796.53
2022-12-25T22:55:18.391Z,98786.34
2022-12-25T22:57:46.693Z,98776.28
2022-12-25T23:00:16.287Z,98787.03
2022-12-25T23:02:44.649Z,98773.16
2022-12-25T23:05:12.913Z,98772.53
2022-12-25T23:07:41.819Z,98778.03
2022-12-25T23:10:11.311Z,98776.53
2022-12-25T23:12:57.051Z,98781.94
2022-12-25T23:15:27.681Z,98779.06
2022-12-25T23:18:13.563Z,98774.00
2022-12-25T23:20:59.187Z,98779.41
2022-12-25T23:23:44.839Z,98779.47
2022-12-25T23:26:14.594Z,98768.19
2022-12-25T23:29:01.914Z,98770.72
2022-12-25T23:31:34.501Z,98753.19
2022-12-25T23:34:03.755Z,98759.97
2022-12-25T23:36:32.161Z,98758.22
2022-12-25T23:39:08.521Z,98751.34
2022-12-25T23:41:38.302Z,98758.28
2022-12-25T23:44:06.497Z,98757.38
2022-12-25T23:46:36.775Z,98745.97
2022-12-25T23:49:05.137Z,98746.81
2022-12-25T23:51:33.378Z,98744.00
2022-12-25T23:54:01.560Z,98749.09
2022-12-25T23:56:29.787Z,98740.88
2022-12-25T23:58:58.028Z,98734.53
